• Join FlightAware (Why Join?)
  • Login
  • US Flag GB Flag 
23:35 EDT


 

Airport Tracker/Info


-or-


 

Live Flight TrackerFlight Track Log ✈ UAL33 ✈ 22-Apr-2013 ✈ KLAX - KJFK

Flight Track Log - Related Links

Times and Time Zones

All times are in EDT time to prevent confusion due to time zone crossing. See the UAL33 flight status page for this flight to view local times or setup timezone preferences in your user account.

Time Position Orientation Groundspeed Altitude Reporting Facility
EDT Latitude Longitude Course Direction KTS MPH feet Rate Location/Type
18:19 33.9180 -118.4730 262° West 198 228 2,200  Level FlightAware
18:20 33.9100 -118.5060 254° West 223 257 3,200 2,040 Climbing FlightAware
18:20 33.8990 -118.5390 248° West 258 297 4,100 2,520 Climbing FlightAware
18:20 33.8850 -118.5540 222° Southwest 265 305 4,900 2,760 Climbing FlightAware
18:20 33.8690 -118.5580 192° South 272 313 5,500 2,640 Climbing FlightAware
18:21 33.8550 -118.5540 167° South 279 321 6,000 3,120 Climbing FlightAware
18:21 33.8390 -118.5380 140° Southeast 279 321 6,800 3,000 Climbing FlightAware
18:21 33.8320 -118.5180 113° Southeast 283 326 7,500 2,580 Climbing FlightAware
18:21 33.8330 -118.4930 87° East 288 331 8,100 2,580 Climbing FlightAware
18:22 33.8410 -118.4720 65° Northeast 283 326 8,800 3,180 Climbing FlightAware
18:22 33.8570 -118.4560 40° Northeast 279 321 9,700 2,400 Climbing FlightAware
18:23 33.9090 -118.4460 North 307 353 11,000 1,620 Climbing FlightAware
18:23 33.9290 -118.4370 20° North 332 382 11,200 780 Climbing FlightAware
18:23 33.9480 -118.4150 44° Northeast 361 415 11,400 2,400 Climbing FlightAware
18:24 33.9820 -118.3450 60° Northeast 364 419 13,400 2,700 Climbing FlightAware
18:24 34.0190 -118.2770 57° Northeast 378 435 15,000 2,280 Climbing FlightAware
18:28 34.2560 -117.8580 56° Northeast 428 493 23,700 2,220 Climbing FlightAware
18:29 34.3020 -117.7760 56° Northeast 436 502 25,000 1,800 Climbing FlightAware
18:29 34.3470 -117.6960 56° Northeast 446 513 26,100 1,680 Climbing FlightAware
18:30 34.4060 -117.6060 52° Northeast 453 521 27,400 1,620 Climbing FlightAware
18:31 34.4620 -117.5260 50° Northeast 463 533 28,400 1,560 Climbing FlightAware
18:32 34.5190 -117.4460 49° Northeast 470 541 29,500 1,440 Climbing FlightAware
18:32 34.5830 -117.3560 49° Northeast 479 551 30,500 1,260 Climbing FlightAware
18:37 35.0090 -116.7460 49° Northeast 465 535 37,000 1,080 Climbing FlightAware
18:38 35.0790 -116.6450 50° Northeast 467 537 37,000  Level FlightAware
18:39 35.1420 -116.5530 50° Northeast 465 535 37,000  Level FlightAware
18:40 35.1980 -116.4720 50° Northeast 464 534 37,000  Level FlightAware
18:42 35.4210 -116.1450 50° Northeast 465 535 37,000  Level FlightAware
18:43 35.4680 -116.0680 53° Northeast 471 542 37,000  Level FlightAware
18:44 35.5130 -115.9570 63° Northeast 474 545 37,000  Level FlightAware
18:44 35.5490 -115.8590 66° East 475 547 37,000  Level FlightAware
18:45 35.5850 -115.7610 66° East 474 545 37,000  Level FlightAware
18:46 35.6240 -115.6520 66° East 473 544 37,000  Level FlightAware
18:46 35.6590 -115.5530 66° East 472 543 37,000  Level FlightAware
18:47 35.6990 -115.4430 66° East 471 542 37,000  Level FlightAware
18:48 35.7340 -115.3440 66° East 471 542 37,000  Level FlightAware
18:49 35.7730 -115.2330 67° East 472 543 37,000  Level FlightAware
18:49 35.8080 -115.1340 66° East 471 542 37,000  Level FlightAware
18:50 35.8430 -115.0360 66° East 470 541 37,000  Level FlightAware
18:51 35.8820 -114.9270 66° East 472 543 37,000  Level FlightAware
18:51 35.9160 -114.8290 67° East 473 544 37,000  Level FlightAware
18:52 35.9570 -114.7150 66° East 474 545 37,000  Level FlightAware
18:53 35.9910 -114.6160 67° East 473 544 37,000  Level FlightAware
18:53 36.0260 -114.5170 66° East 474 545 37,000  Level FlightAware
18:54 36.0640 -114.4080 67° East 474 545 37,000  Level FlightAware
18:55 36.0990 -114.3090 66° East 474 545 37,000  Level FlightAware
18:56 36.1390 -114.1930 67° East 476 548 37,000  Level FlightAware
18:56 36.1740 -114.0930 67° East 475 547 37,000  Level FlightAware
18:57 36.2080 -113.9940 67° East 474 545 37,000  Level FlightAware
18:58 36.2460 -113.8830 67° East 476 548 37,000  Level FlightAware
18:58 36.2800 -113.7840 67° East 477 549 37,000  Level FlightAware
18:59 36.3190 -113.6670 67° East 477 549 37,000  Level FlightAware
19:00 36.3530 -113.5670 67° East 476 548 37,000  Level FlightAware
19:00 36.3870 -113.4670 67° East 478 550 37,000  Level FlightAware
19:01 36.4240 -113.3560 67° East 481 554 37,000  Level FlightAware
19:02 36.4580 -113.2570 67° East 482 555 37,000  Level FlightAware
19:03 36.4990 -113.1340 67° East 484 557 37,000  Level FlightAware
19:03 36.5270 -113.0500 67° East 484 557 37,000  Level FlightAware
19:04 36.5660 -112.9310 68° East 484 557 37,000  Level FlightAware
19:05 36.6030 -112.8210 67° East 484 557 37,000  Level FlightAware
19:05 36.6290 -112.7420 68° East 485 558 37,000  Level FlightAware
19:06 36.6730 -112.6130 67° East 485 558 37,000  Level FlightAware
19:07 36.7210 -112.4620 68° East 487 560 37,000  Level FlightAware
19:08 36.7510 -112.3740 67° East 487 560 37,000  Level FlightAware
19:08 36.7890 -112.2500 69° East 489 563 37,000  Level FlightAware
19:09 36.8240 -112.1410 68° East 489 563 37,000  Level FlightAware
19:10 36.8530 -112.0520 68° East 489 563 37,000  Level FlightAware
19:10 36.8820 -111.9630 68° East 489 563 37,000  Level FlightAware
19:11 36.9110 -111.8740 68° East 489 563 37,000  Level FlightAware
19:12 36.9470 -111.7620 68° East 489 563 37,000  Level FlightAware
19:13 36.9750 -111.6730 68° East 489 563 37,000  Level FlightAware
19:13 37.0040 -111.5840 68° East 489 563 37,000  Level FlightAware
19:14 37.0330 -111.4940 68° East 489 563 37,000  Level FlightAware
19:15 37.0620 -111.4050 68° East 489 563 37,000  Level FlightAware
19:15 37.0980 -111.2930 68° East 489 563 37,000  Level FlightAware
19:16 37.1270 -111.2040 68° East 489 563 37,000  Level FlightAware
19:17 37.1550 -111.1140 69° East 489 563 37,000  Level FlightAware
19:17 37.1840 -111.0250 68° East 489 563 37,000  Level FlightAware
19:18 37.2130 -110.9350 68° East 489 563 37,000  Level FlightAware
19:19 37.3111 -110.6000 68° East 502 578 37,000  Level Denver Center
19:20 37.3628 -110.4356 68° East 506 582 37,000  Level Denver Center
19:21 37.4217 -110.2394 69° East 503 579 37,000  Level Denver Center
19:22 37.4719 -110.0747 69° East 509 586 37,000  Level Denver Center
19:23 37.5200 -109.9131 69° East 512 589 37,000  Level Denver Center
19:24 37.5761 -109.7256 69° East 513 590 37,000  Level Denver Center
19:25 37.6231 -109.5642 70° East 511 588 37,000  Level Denver Center
19:26 37.6708 -109.4031 69° East 511 588 37,000  Level Denver Center
19:27 37.7256 -109.2156 70° East 509 586 37,000  Level Denver Center
19:28 37.7728 -109.0558 69° East 507 583 37,000 -120 Level Denver Center
19:29 37.8253 -108.8703 70° East 502 578 36,800 -540 Descending Denver Center
19:30 37.8575 -108.7014 76° East 510 587 36,000 -420 Descending Denver Center
19:31 37.8906 -108.5397 75° East 502 578 36,000  Level Denver Center
19:32 37.9325 -108.3469 75° East 505 581 36,000  Level Denver Center
19:33 37.9686 -108.1767 75° East 514 592 36,000  Level Denver Center
19:34 38.0092 -107.9753 76° East 524 603 36,000 120 Level Denver Center
19:40 38.2580 -106.8740 76° East 522 601 37,000 120 Climbing FlightAware ADS-B
19:41 38.2825 -106.7860 70° East 522 601 37,000  Level FlightAware ADS-B
19:41 38.3071 -106.6990 70° East 524 603 37,000  Level FlightAware ADS-B
19:42 38.3316 -106.6100 71° East 522 601 37,000  Level FlightAware ADS-B
19:43 38.3732 -106.4590 71° East 522 601 37,000  Level FlightAware ADS-B
19:43 38.3940 -106.3810 71° East 519 597 37,000  Level FlightAware
19:44 38.4173 -106.2960 71° East 518 596 37,000  Level FlightAware ADS-B
19:44 38.4468 -106.1870 71° East 516 594 37,000  Level FlightAware ADS-B
19:45 38.4801 -106.0630 71° East 517 595 37,000  Level FlightAware ADS-B
19:46 38.5074 -105.9610 71° East 515 593 37,000  Level FlightAware ADS-B
19:46 38.5316 -105.8700 71° East 514 592 37,000  Level FlightAware ADS-B
19:47 38.5570 -105.7740 71° East 515 593 37,000  Level FlightAware ADS-B
19:47 38.5809 -105.6850 71° East 516 594 37,000  Level FlightAware ADS-B
19:48 38.6042 -105.5960 71° East 516 594 37,000  Level FlightAware ADS-B
19:48 38.6272 -105.5080 71° East 514 592 37,000  Level FlightAware ADS-B
19:49 38.6501 -105.4210 71° East 515 593 37,000  Level FlightAware ADS-B
19:49 38.6732 -105.3330 71° East 516 594 37,000  Level FlightAware ADS-B
19:50 38.6961 -105.2450 72° East 520 598 37,000  Level FlightAware ADS-B
19:50 38.7193 -105.1560 72° East 521 600 37,000  Level FlightAware ADS-B
19:51 38.7423 -105.0670 72° East 523 602 37,000  Level FlightAware ADS-B
19:51 38.7651 -104.9780 72° East 525 604 37,000  Level FlightAware ADS-B
19:52 38.7886 -104.8860 72° East 526 605 37,000  Level FlightAware ADS-B
19:52 38.8157 -104.7800 72° East 530 610 37,000  Level FlightAware ADS-B
19:53 38.8449 -104.6650 72° East 531 611 37,000  Level FlightAware ADS-B
19:53 38.8641 -104.5930 71° East 530 610 37,000  Level FlightAware ADS-B
19:54 38.8962 -104.4960 67° East 528 608 37,000  Level FlightAware ADS-B
19:55 38.9295 -104.4110 63° Northeast 523 602 37,000  Level FlightAware ADS-B
19:55 38.9649 -104.3290 61° Northeast 525 604 37,000  Level FlightAware ADS-B
19:56 39.0015 -104.2410 62° Northeast 527 606 37,000  Level FlightAware ADS-B
19:56 39.0374 -104.1560 61° Northeast 528 608 37,000  Level FlightAware ADS-B
19:57 39.0722 -104.0730 62° Northeast 529 609 37,000  Level FlightAware ADS-B
19:57 39.1074 -103.9900 61° Northeast 528 608 37,000  Level FlightAware ADS-B
19:58 39.1429 -103.9060 61° Northeast 527 606 37,000  Level FlightAware ADS-B
19:58 39.1783 -103.8220 61° Northeast 527 606 37,000  Level FlightAware ADS-B
19:59 39.2135 -103.7390 61° Northeast 526 605 37,000  Level FlightAware ADS-B
19:59 39.2481 -103.6570 61° Northeast 524 603 37,000  Level FlightAware ADS-B
20:00 39.2828 -103.5740 62° Northeast 524 603 37,000  Level FlightAware ADS-B
20:00 39.3175 -103.4910 62° Northeast 523 602 37,000  Level FlightAware ADS-B
20:01 39.3522 -103.4080 62° Northeast 523 602 37,000  Level FlightAware ADS-B
20:01 39.3865 -103.3250 62° Northeast 523 602 37,000  Level FlightAware ADS-B
20:02 39.4210 -103.2420 62° Northeast 522 601 37,000  Level FlightAware ADS-B
20:02 39.4552 -103.1590 62° Northeast 521 600 37,000  Level FlightAware ADS-B
20:03 39.4893 -103.0770 62° Northeast 520 598 37,000  Level FlightAware ADS-B
20:03 39.5231 -102.9940 62° Northeast 519 597 37,000  Level FlightAware ADS-B
20:04 39.5578 -102.9100 62° Northeast 519 597 37,000  Level FlightAware ADS-B
20:04 39.5918 -102.8270 62° Northeast 518 596 37,000  Level FlightAware ADS-B
20:05 39.6253 -102.7440 62° Northeast 520 598 37,000  Level FlightAware ADS-B
20:05 39.6603 -102.6590 62° Northeast 519 597 37,000  Level FlightAware ADS-B
20:06 39.6939 -102.5750 63° Northeast 519 597 37,000  Level FlightAware ADS-B
20:06 39.7278 -102.4920 62° Northeast 520 598 37,000  Level FlightAware ADS-B
20:07 39.7636 -102.4030 62° Northeast 525 604 37,000  Level FlightAware ADS-B
20:07 39.7985 -102.3160 62° Northeast 529 609 37,000  Level FlightAware ADS-B
20:08 39.8330 -102.2290 63° Northeast 531 611 37,000  Level FlightAware ADS-B
20:08 39.8670 -102.1440 62° Northeast 534 615 37,000  Level FlightAware ADS-B
20:09 39.9011 -102.0590 62° Northeast 537 618 37,000  Level FlightAware ADS-B
20:09 39.9358 -101.9720 62° Northeast 538 619 37,000  Level FlightAware ADS-B
20:10 39.9701 -101.8850 63° Northeast 538 619 37,000  Level FlightAware ADS-B
20:10 40.0053 -101.7960 63° Northeast 540 621 37,000  Level FlightAware ADS-B
20:11 40.0397 -101.7080 63° Northeast 540 621 37,000  Level FlightAware ADS-B
20:11 40.0738 -101.6210 63° Northeast 540 621 37,000  Level FlightAware ADS-B
20:12 40.1088 -101.5320 63° Northeast 540 621 37,000  Level FlightAware ADS-B
20:12 40.1430 -101.4440 63° Northeast 540 621 37,000  Level FlightAware ADS-B
20:13 40.1775 -101.3560 63° Northeast 539 620 37,000  Level FlightAware ADS-B
20:13 40.2120 -101.2670 63° Northeast 539 620 37,000  Level FlightAware ADS-B
20:14 40.2459 -101.1790 63° Northeast 538 619 37,000  Level FlightAware ADS-B
20:15 40.2929 -101.0570 63° Northeast 537 618 37,000  Level FlightAware ADS-B
20:15 40.3528 -100.9089 63° Northeast 535 616 37,000  Level Denver Center
20:16 40.4158 -100.7444 63° Northeast 533 613 37,000  Level Denver Center
20:17 40.4883 -100.5533 63° Northeast 529 609 37,000  Level Denver Center
20:18 40.5494 -100.3894 64° Northeast 528 608 37,000  Level Denver Center
20:20 40.6217 -100.1997 63° Northeast 523 602 37,000  Level Denver Center
20:21 40.6831 -100.0367 64° Northeast 524 603 37,000  Level Denver Center
20:22 40.7528 -99.8456 64° Northeast 520 598 37,000  Level Denver Center
20:23 40.8156 -99.6747 64° Northeast 521 600 37,000  Level Denver Center
20:24 40.8797 -99.5042 64° Northeast 520 598 37,000  Level Denver Center
20:25 40.9417 -99.3322 64° Northeast 518 596 37,000  Level Denver Center
20:26 41.0033 -99.1594 65° Northeast 518 596 37,000  Level Denver Center
20:27 41.0694 -98.9758 64° Northeast 519 597 37,000  Level Minneapolis Center
20:28 41.1425 -98.7675 65° Northeast 519 597 37,000  Level Minneapolis Center
20:29 41.2061 -98.5928 64° Northeast 522 601 37,000  Level Minneapolis Center
20:30 41.2700 -98.4092 65° Northeast 525 604 37,000  Level Minneapolis Center
20:31 41.3314 -98.2331 65° Northeast 526 605 37,000  Level Minneapolis Center
20:32 41.3900 -98.0656 65° Northeast 522 601 37,000  Level Minneapolis Center
20:33 41.4506 -97.8906 65° Northeast 520 598 37,000  Level Minneapolis Center
20:34 41.5103 -97.7189 65° Northeast 514 592 37,000  Level Minneapolis Center
20:35 41.5803 -97.5133 65° Northeast 508 585 37,000  Level Minneapolis Center
20:36 41.6364 -97.3447 66° East 501 577 37,000  Level Minneapolis Center
20:37 41.6942 -97.1764 65° Northeast 497 572 37,000  Level Minneapolis Center
20:38 41.7500 -97.0083 66° East 494 568 37,000  Level Minneapolis Center
20:39 41.8061 -96.8414 66° East 491 565 37,000  Level Minneapolis Center
20:40 41.8617 -96.6725 66° East 492 566 37,000  Level Minneapolis Center
20:41 41.9172 -96.5036 66° East 492 566 37,000  Level Minneapolis Center
20:42 41.9725 -96.3328 66° East 494 568 37,000  Level Minneapolis Center
20:43 42.0283 -96.1600 66° East 499 574 37,000 540 Level Minneapolis Center
20:44 42.0953 -95.9528 66° East 499 574 38,200 960 Climbing Minneapolis Center
20:45 42.1508 -95.7792 67° East 503 579 39,000 360 Climbing Minneapolis Center
20:46 42.2072 -95.6028 67° East 510 587 39,000  Level Minneapolis Center
20:47 42.2622 -95.4269 67° East 507 583 39,000  Level Minneapolis Center
20:48 42.3175 -95.2525 67° East 503 579 39,000  Level Minneapolis Center
20:49 42.3708 -95.0789 67° East 500 575 39,000  Level Minneapolis Center
20:51 42.4253 -94.9086 67° East 493 567 39,000  Level Minneapolis Center
20:52 42.4778 -94.7358 68° East 496 571 39,000  Level Minneapolis Center
20:57 42.5700 -93.6870 68° East 502 578 39,000  Level FlightAware
20:58 42.5630 -93.5480 94° East 503 579 39,000  Level FlightAware
20:59 42.5560 -93.4220 94° East 504 580 39,000  Level FlightAware
20:59 42.5490 -93.2710 94° East 504 580 39,000  Level FlightAware
21:00 42.5420 -93.1470 94° East 504 580 39,000  Level FlightAware
21:01 42.5350 -93.0220 94° East 504 580 39,000  Level FlightAware
21:02 42.5250 -92.8410 94° East 504 580 39,000  Level FlightAware
21:02 42.5180 -92.7100 94° East 503 579 39,000  Level FlightAware
21:03 42.5100 -92.5810 95° East 502 578 39,000  Level FlightAware
21:04 42.5020 -92.4540 95° East 500 575 39,000  Level FlightAware
21:05 42.4940 -92.3180 95° East 498 573 39,000  Level FlightAware
21:05 42.4860 -92.1780 94° East 496 571 39,000  Level FlightAware
21:06 42.4780 -92.0530 95° East 494 568 39,000  Level FlightAware
21:07 42.4700 -91.9300 95° East 491 565 39,000  Level FlightAware
21:07 42.4630 -91.8180 95° East 490 564 39,000  Level FlightAware
21:08 42.4530 -91.6750 95° East 488 562 39,000  Level FlightAware
21:09 42.4440 -91.5350 95° East 488 562 39,000  Level FlightAware
21:09 42.4360 -91.4180 95° East 487 560 39,000  Level FlightAware
21:10 42.4260 -91.2800 96° East 486 559 39,000  Level FlightAware
21:11 42.4190 -91.1760 95° East 485 558 39,000  Level FlightAware
21:12 42.4090 -91.0480 96° East 484 557 39,000  Level FlightAware
21:12 42.3990 -90.9090 96° East 483 556 39,000  Level FlightAware
21:13 42.3900 -90.7880 96° East 482 555 39,000  Level FlightAware
21:14 42.3820 -90.6680 95° East 482 555 39,000  Level FlightAware
21:14 42.3760 -90.5310 93° East 481 554 39,000  Level FlightAware
21:15 42.3690 -90.4100 94° East 480 552 39,000  Level FlightAware
21:16 42.3620 -90.2750 94° East 480 552 39,000  Level FlightAware
21:16 42.3550 -90.1540 94° East 479 551 39,000  Level FlightAware
21:17 42.3470 -90.0340 95° East 478 550 39,000  Level FlightAware
21:18 42.3400 -89.9030 94° East 478 550 39,000  Level FlightAware
21:19 42.3320 -89.7830 95° East 478 550 39,000  Level FlightAware
21:19 42.3240 -89.6480 95° East 478 550 39,000  Level FlightAware
21:20 42.3170 -89.5330 95° East 478 550 39,000  Level FlightAware
21:21 42.3080 -89.4010 95° East 478 550 39,000  Level FlightAware
21:21 42.3010 -89.2850 95° East 478 550 39,000  Level FlightAware
21:22 42.2920 -89.1590 95° East 480 552 39,000  Level FlightAware
21:23 42.2830 -89.0300 95° East 481 554 39,000  Level FlightAware
21:23 42.2750 -88.9130 95° East 482 555 39,000  Level FlightAware
21:24 42.2670 -88.7960 95° East 482 555 39,000  Level FlightAware
21:25 42.2570 -88.6540 95° East 483 556 39,000  Level FlightAware
21:26 42.2480 -88.5320 96° East 484 557 39,000  Level FlightAware
21:26 42.2380 -88.3950 96° East 485 558 39,000  Level FlightAware
21:27 42.2290 -88.2740 96° East 485 558 39,000  Level FlightAware
21:28 42.2190 -88.1410 96° East 485 558 39,000  Level FlightAware
21:28 42.2100 -88.0280 96° East 485 558 39,000  Level FlightAware
21:29 42.2170 -87.9030 86° East 484 557 39,000  Level FlightAware
21:30 42.2350 -87.7650 80° East 483 556 39,000  Level FlightAware
21:30 42.2520 -87.6460 79° East 483 556 39,000  Level FlightAware
21:31 42.2700 -87.5200 79° East 483 556 39,000  Level FlightAware
21:32 42.2860 -87.4010 80° East 482 555 39,000  Level FlightAware
21:33 42.3020 -87.2810 80° East 482 555 39,000  Level FlightAware
21:33 42.3200 -87.1500 79° East 481 554 39,000  Level FlightAware
21:34 42.3370 -87.0270 79° East 480 552 39,000  Level FlightAware
21:35 42.3530 -86.9010 80° East 479 551 39,000  Level FlightAware
21:35 42.3690 -86.7810 80° East 478 550 39,000  Level FlightAware
21:36 42.3870 -86.6450 80° East 478 550 39,000  Level FlightAware
21:37 42.4020 -86.5280 80° East 476 548 39,000  Level FlightAware
21:37 42.4160 -86.4160 80° East 476 548 39,000  Level FlightAware
21:38 42.4320 -86.2920 80° East 476 548 39,000  Level FlightAware
21:39 42.4470 -86.1690 81° East 476 548 39,000  Level FlightAware
21:40 42.4520 -86.0440 87° East 477 549 39,000  Level FlightAware
21:40 42.4500 -85.9110 91° East 477 549 39,000  Level FlightAware
21:41 42.4490 -85.7920 91° East 477 549 39,000  Level FlightAware
21:42 42.4470 -85.6610 91° East 478 550 39,000  Level FlightAware
21:42 42.4450 -85.5380 91° East 478 550 39,000  Level FlightAware
21:43 42.4430 -85.4210 91° East 478 550 39,000  Level FlightAware
21:44 42.4410 -85.2810 91° East 479 551 39,000  Level FlightAware
21:44 42.4390 -85.1670 91° East 480 552 39,000  Level FlightAware
21:45 42.4360 -85.0300 92° East 481 554 39,000  Level FlightAware
21:46 42.4340 -84.9100 91° East 480 552 39,000  Level FlightAware
21:47 42.4310 -84.7990 92° East 480 552 39,000  Level FlightAware
21:47 42.4280 -84.6540 92° East 481 554 39,000  Level FlightAware
21:48 42.4250 -84.5370 92° East 480 552 39,000  Level FlightAware
21:49 42.4220 -84.4000 92° East 480 552 39,000  Level FlightAware
21:49 42.4190 -84.2830 92° East 480 552 39,000  Level FlightAware
21:50 42.4160 -84.1610 92° East 479 551 39,000  Level FlightAware
21:51 42.4120 -84.0420 93° East 479 551 39,000  Level FlightAware
21:51 42.4090 -83.9110 92° East 477 549 39,000  Level FlightAware
21:52 42.4050 -83.7910 93° East 476 548 39,000  Level FlightAware
21:53 42.4010 -83.6550 92° East 474 545 39,000  Level FlightAware
21:53 42.3980 -83.5630 92° East 473 544 39,000  Level FlightAware
21:54 42.3940 -83.4360 92° East 466 536 39,000  Level FlightAware
21:55 42.3910 -83.3250 92° East 461 531 39,000  Level FlightAware
21:56 42.3860 -83.1690 92° East 458 527 39,000  Level FlightAware
21:56 42.3830 -83.0790 93° East 457 526 39,000  Level FlightAware
21:57 42.3790 -82.9420 92° East 456 525 39,000  Level FlightAware
21:58 42.3750 -82.8220 93° East 455 524 39,000  Level FlightAware
21:58 42.3700 -82.6880 93° East 454 522 39,000  Level FlightAware
21:59 42.3660 -82.5810 93° East 453 521 39,000  Level FlightAware
22:00 42.3610 -82.4570 93° East 453 521 39,000  Level FlightAware
22:01 42.3570 -82.3620 93° East 453 521 39,000  Level FlightAware
22:01 42.3520 -82.2200 93° East 452 520 39,000  Level FlightAware
22:02 42.3480 -82.1290 93° East 452 520 39,000  Level FlightAware
22:03 42.3420 -81.9830 93° East 452 520 39,000  Level FlightAware
22:03 42.3370 -81.8750 94° East 452 520 39,000  Level FlightAware
22:04 42.3310 -81.7310 93° East 453 521 39,000  Level FlightAware
22:05 42.3250 -81.6020 94° East 454 522 39,000  Level FlightAware
22:06 42.3210 -81.5130 93° East 455 524 39,000  Level FlightAware
22:06 42.3140 -81.3690 94° East 457 526 39,000  Level FlightAware
22:07 42.3080 -81.2440 94° East 458 527 39,000  Level FlightAware
22:08 42.3020 -81.1410 94° East 459 528 39,000  Level FlightAware
22:09 42.2960 -81.0050 93° East 459 528 39,000  Level FlightAware
22:09 42.2890 -80.8850 94° East 460 529 39,000  Level FlightAware
22:10 42.2830 -80.7660 94° East 460 529 39,000  Level FlightAware
22:11 42.2750 -80.6200 94° East 461 531 39,000  Level FlightAware
22:11 42.2680 -80.5070 95° East 461 531 39,000  Level FlightAware
22:12 42.2620 -80.3940 94° East 461 531 39,000  Level FlightAware
22:13 42.2530 -80.2460 95° East 461 531 39,000  Level FlightAware
22:14 42.2450 -80.1170 95° East 460 529 39,000  Level FlightAware
22:14 42.2380 -79.9970 94° East 459 528 39,000  Level FlightAware
22:15 42.2310 -79.8790 95° East 458 527 39,000  Level FlightAware
22:16 42.2220 -79.7360 95° East 463 533 39,000  Level FlightAware
22:17 42.2130 -79.6010 95° East 468 539 39,000  Level FlightAware
22:17 42.2060 -79.4910 95° East 469 540 39,000  Level FlightAware
22:18 42.1980 -79.3680 95° East 471 542 39,000  Level FlightAware
22:19 42.1890 -79.2350 95° East 474 545 39,000  Level FlightAware
22:19 42.1760 -79.1360 100° East 468 539 39,000  Level FlightAware
22:20 42.1440 -79.0020 108° East 466 536 39,000  Level FlightAware
22:21 42.1110 -78.8710 109° East 468 539 39,000  Level FlightAware
22:22 42.0830 -78.7590 109° East 469 540 39,000  Level FlightAware
22:22 42.0510 -78.6360 109° East 471 542 39,000  Level FlightAware
22:23 42.0230 -78.5240 109° East 471 542 39,000  Level FlightAware
22:24 41.9950 -78.4160 109° East 471 542 39,000  Level FlightAware
22:24 41.9620 -78.2890 109° East 470 541 39,000  Level FlightAware
22:25 41.9350 -78.1850 109° East 470 541 39,000  Level FlightAware
22:26 41.9020 -78.0570 109° East 469 540 39,000  Level FlightAware
22:26 41.8730 -77.9480 110° East 468 539 39,000  Level FlightAware
22:27 41.8410 -77.8230 109° East 465 535 39,000  Level FlightAware
22:28 41.8140 -77.7200 109° East 464 534 39,000  Level FlightAware
22:29 41.7840 -77.6080 110° East 462 532 39,000  Level FlightAware
22:29 41.7520 -77.4910 110° East 460 529 39,000  Level FlightAware
22:30 41.7230 -77.3820 110° East 459 528 39,000  Level FlightAware
22:31 41.6910 -77.2620 110° East 458 527 39,000  Level FlightAware
22:31 41.6630 -77.1570 110° East 457 526 39,000  Level FlightAware
22:32 41.6339 -77.0518 110° East 457 526 39,000  Level FlightAware ADS-B
22:33 41.6090 -76.9603 110° East 456 525 39,000  Level FlightAware ADS-B
22:33 41.5865 -76.8782 110° East 457 526 39,000  Level FlightAware ADS-B
22:34 41.5587 -76.7768 110° East 457 526 39,000  Level FlightAware ADS-B
22:34 41.5420 -76.7150 110° East 457 526 39,000  Level FlightAware
22:34 41.5326 -76.6822 111° Southeast 458 527 39,000  Level FlightAware ADS-B
22:35 41.5103 -76.6015 110° East 459 528 39,000 -720 Level FlightAware ADS-B
22:35 41.4878 -76.5206 110° East 465 535 38,300 -1,200 Descending FlightAware ADS-B
22:36 41.4653 -76.4400 110° East 459 528 37,800 -1,020 Descending FlightAware ADS-B
22:36 41.4420 -76.3560 110° East 445 512 37,300 -1,380 Descending FlightAware ADS-B
22:37 41.4200 -76.2781 111° Southeast 443 510 36,400 -1,860 Descending FlightAware ADS-B
22:37 41.3972 -76.1973 111° Southeast 446 513 35,400 -2,340 Descending FlightAware ADS-B
22:38 41.3741 -76.1166 111° Southeast 454 522 34,000 -3,120 Descending FlightAware ADS-B
22:38 41.3506 -76.0340 111° Southeast 469 540 32,200 -3,660 Descending FlightAware ADS-B
22:39 41.3269 -75.9507 111° Southeast 485 558 30,300 -2,880 Descending FlightAware ADS-B
22:39 41.3031 -75.8661 111° Southeast 473 544 29,300 -1,620 Descending FlightAware ADS-B
22:40 41.2802 -75.7853 111° Southeast 461 531 28,700 -1,380 Descending FlightAware ADS-B
22:40 41.2561 -75.7051 112° Southeast 454 522 27,900 -1,920 Descending FlightAware ADS-B
22:41 41.2310 -75.6288 114° Southeast 446 513 26,800 -2,100 Descending FlightAware ADS-B
22:41 41.2061 -75.5546 114° Southeast 437 503 25,800 -2,100 Descending FlightAware ADS-B
22:42 41.1812 -75.4811 114° Southeast 430 495 24,700 -2,160 Descending FlightAware ADS-B
22:42 41.1563 -75.4074 114° Southeast 421 484 23,600 -1,680 Descending FlightAware ADS-B
22:43 41.1324 -75.3374 114° Southeast 409 471 23,000 -600 Descending FlightAware ADS-B
22:43 41.1094 -75.2694 114° Southeast 390 449 23,000  Level FlightAware ADS-B
22:44 41.0882 -75.2066 114° Southeast 364 419 23,000  Level FlightAware ADS-B
22:45 41.0660 -75.1422 115° Southeast 356 410 23,000  Level FlightAware ADS-B
22:45 41.0452 -75.0816 114° Southeast 357 411 23,000  Level FlightAware ADS-B
22:46 41.0238 -75.0186 114° Southeast 359 413 23,000 -420 Level FlightAware ADS-B
22:46 41.0034 -74.9586 114° Southeast 354 407 22,600 -960 Descending FlightAware ADS-B
22:46 40.9902 -74.9189 114° Southeast 355 409 22,200 -1,260 Descending FlightAware ADS-B
22:47 40.9836 -74.8912 108° East 354 407 21,900 -1,320 Descending FlightAware ADS-B
22:47 40.9833 -74.8892 101° East 354 407 21,900 -1,320 Level FlightAware ADS-B
22:47 40.9775 -74.8497 101° East 353 406 21,500 -1,320 Descending FlightAware ADS-B
22:47 40.9718 -74.8003 99° East 354 407 21,000 -1,020 Descending FlightAware ADS-B
22:47 40.9704 -74.7864 98° East 344 396 21,000  Level FlightAware ADS-B
22:48 40.9680 -74.7632 98° East 345 397 21,000  Level FlightAware ADS-B
22:48 40.9677 -74.7470 91° East 347 399 21,000  Level FlightAware ADS-B
22:48 40.9683 -74.7364 86° East 348 400 21,000  Level FlightAware ADS-B
22:48 40.9747 -74.6806 81° East 356 410 21,000  Level FlightAware ADS-B
22:49 40.9807 -74.6322 81° East 355 409 21,000  Level FlightAware ADS-B
22:49 40.9816 -74.6248 81° East 354 407 21,000 -1,080 Level FlightAware ADS-B
22:49 40.9828 -74.5961 87° East 349 402 20,700 -1,680 Descending FlightAware ADS-B
22:49 40.9809 -74.5644 95° East 346 398 20,200 -1,680 Descending FlightAware ADS-B
22:49 40.9788 -74.5495 101° East 344 396 20,100 -1,500 Descending FlightAware ADS-B
22:50 40.9656 -74.4834 105° East 340 391 19,200 -1,020 Descending FlightAware ADS-B
22:50 40.9526 -74.4181 105° East 335 386 19,000 -240 Descending FlightAware ADS-B
22:51 40.9447 -74.3788 105° East 340 391 19,000  Level FlightAware ADS-B
22:51 40.9404 -74.3579 105° East 341 392 19,000  Level FlightAware ADS-B
22:51 40.9304 -74.3092 105° East 342 394 19,000  Level FlightAware ADS-B
22:51 40.9268 -74.2920 105° East 342 394 19,000  Level FlightAware ADS-B
22:52 40.9179 -74.2482 105° East 339 390 19,000  Level FlightAware ADS-B
22:52 40.9143 -74.2307 105° East 339 390 19,000  Level FlightAware ADS-B
22:52 40.9105 -74.2154 108° East 336 387 19,000  Level FlightAware ADS-B
22:52 40.9078 -74.2072 114° Southeast 335 386 19,000  Level FlightAware ADS-B
22:52 40.9062 -74.2030 117° Southeast 335 386 19,000  Level FlightAware ADS-B
22:52 40.8995 -74.1885 121° Southeast 333 383 19,000  Level FlightAware ADS-B
22:53 40.8806 -74.1515 124° Southeast 332 382 19,000  Level FlightAware ADS-B
22:53 40.8731 -74.1371 125° Southeast 333 383 19,000  Level FlightAware ADS-B
22:53 40.8539 -74.1000 124° Southeast 332 382 19,000 -420 Level FlightAware ADS-B
22:53 40.8468 -74.0867 125° Southeast 331 381 18,800 -1,440 Descending FlightAware ADS-B
22:54 40.8281 -74.0501 124° Southeast 329 379 18,300 -1,560 Descending FlightAware ADS-B
22:54 40.8199 -74.0343 124° Southeast 328 377 18,000 -1,620 Descending FlightAware ADS-B
22:54 40.7984 -73.9938 125° Southeast 325 374 17,400 -1,560 Descending FlightAware ADS-B
22:54 40.7933 -73.9840 125° Southeast 325 374 17,200 -1,500 Descending FlightAware ADS-B
22:55 40.7678 -73.9354 125° Southeast 320 368 16,500 -1,440 Descending FlightAware ADS-B
22:55 40.7407 -73.8829 124° Southeast 313 360 15,700 -1,500 Descending FlightAware ADS-B
22:56 40.7165 -73.8356 124° Southeast 309 356 14,900 -1,500 Descending FlightAware ADS-B
22:57 40.6861 -73.7763 124° Southeast 306 352 14,000 -1,500 Descending FlightAware ADS-B
22:57 40.6619 -73.7277 123° Southeast 303 349 13,200 -1,560 Descending FlightAware ADS-B
22:58 40.6382 -73.6816 124° Southeast 301 346 12,400 -1,620 Descending FlightAware ADS-B
22:58 40.6219 -73.6558 130° Southeast 298 343 11,900 -1,680 Descending FlightAware ADS-B
22:58 40.6092 -73.6460 150° Southeast 294 338 11,600 -1,500 Descending FlightAware ADS-B
22:58 40.5969 -73.6421 166° South 289 333 11,400 -1,380 Descending FlightAware ADS-B
22:58 40.5852 -73.6419 179° South 286 329 11,200 -1,380 Descending FlightAware ADS-B
22:59 40.5447 -73.6477 186° South 282 325 10,500 -1,440 Descending FlightAware ADS-B
22:59 40.5169 -73.6517 186° South 279 321 10,000 -1,500 Descending FlightAware ADS-B
23:00 40.4964 -73.6548 187° South 279 321 9,600 -1,740 Descending FlightAware ADS-B
23:00 40.4764 -73.6580 187° South 279 321 9,100 -1,740 Descending FlightAware ADS-B
23:00 40.4704 -73.6596 191° South 279 321 9,000 -1,380 Descending FlightAware ADS-B
23:00 40.4654 -73.6618 199° South 279 321 8,900 -1,380 Descending FlightAware ADS-B
23:00 40.4595 -73.6654 205° Southwest 278 320 8,800 -1,200 Descending FlightAware ADS-B
23:00 40.4537 -73.6701 212° Southwest 277 319 8,700 -1,500 Descending FlightAware ADS-B
23:00 40.4379 -73.6850 216° Southwest 276 318 8,300 -1,500 Descending FlightAware ADS-B
23:01 40.4213 -73.7015 217° Southwest 275 316 7,900 -1,500 Descending FlightAware ADS-B
23:01 40.4048 -73.7178 217° Southwest 274 315 7,500 -1,500 Descending FlightAware ADS-B
23:01 40.3849 -73.7391 219° Southwest 273 314 7,000 -1,680 Descending FlightAware ADS-B
23:01 40.3809 -73.7447 227° Southwest 273 314 6,800 -2,040 Descending FlightAware ADS-B
23:01 40.3782 -73.7499 236° Southwest 274 315 6,700 -1,440 Descending FlightAware ADS-B
23:02 40.3736 -73.7638 247° West 273 314 6,500 -1,200 Descending FlightAware ADS-B
23:02 40.3725 -73.7729 261° West 273 314 6,400 -1,440 Descending FlightAware ADS-B
23:02 40.3728 -73.7856 272° West 272 313 6,200 -1,440 Descending FlightAware ADS-B
23:02 40.3744 -73.7950 283° West 273 314 6,100 -1,680 Descending FlightAware ADS-B
23:02 40.3787 -73.8134 287° West 276 318 5,700 -2,100 Descending FlightAware ADS-B
23:02 40.3859 -73.8408 289° West 281 323 5,100 -1,740 Descending FlightAware ADS-B
23:03 40.3933 -73.8695 289° West 282 325 4,700 -1,200 Descending FlightAware ADS-B
23:03 40.3986 -73.8910 288° West 280 322 4,500 -1,020 Descending FlightAware ADS-B
23:03 40.4053 -73.9176 288° West 278 320 4,200 -1,080 Descending FlightAware ADS-B
23:03 40.4086 -73.9270 295° West 277 319 4,100 -1,200 Descending FlightAware ADS-B
23:03 40.4115 -73.9329 303° West 277 319 4,000 -900 Descending FlightAware ADS-B
23:03 40.4140 -73.9368 310° West 276 318 4,000 -900 Level FlightAware ADS-B
23:03 40.4175 -73.9411 317° Northwest 275 316 3,900 -900 Descending FlightAware ADS-B
23:03 40.4204 -73.9444 319° Northwest 274 315 3,900 -780 Level FlightAware ADS-B
23:04 40.4261 -73.9498 324° Northwest 272 313 3,800 -1,140 Descending FlightAware ADS-B
23:04 40.4431 -73.9651 326° Northwest 270 311 3,500 -1,140 Descending FlightAware ADS-B
23:04 40.4587 -73.9792 325° Northwest 269 310 3,200 -1,020 Descending FlightAware ADS-B
23:04 40.4743 -73.9937 325° Northwest 268 308 3,000 -840 Descending FlightAware ADS-B
23:05 40.5120 -74.0150 337° Northwest 248 285 2,500 -600 Descending FlightAware
23:05 40.5290 -74.0080 17° North 240 276 2,500 -240 Level FlightAware
23:05 40.5410 -73.9960 37° Northeast 238 274 2,400 -720 Descending FlightAware
23:06 40.5640 -73.9650 46° Northeast 226 260 2,000 -900 Descending FlightAware
23:06 40.5820 -73.9410 45° Northeast 211 243 1,600 -1,140 Descending FlightAware
23:07 40.6040 -73.9180 38° Northeast 195 224 1,000 -780 Descending FlightAware
23:07 40.6210 -73.9040 32° Northeast 164 189 900 -360 Descending FlightAware
23:08 40.6390 -73.8880 34° Northeast 139 160 700 -540 Descending FlightAware
23:08 40.6450 -73.8800 45° Northeast 124 143 500 -780 Descending FlightAware
23:08 40.6510 -73.8640 64° Northeast 107 123 200 -720 Descending FlightAware
23:09 40.6510 -73.8440 90° East 114 131 -420 Descending FlightAware
23:09 40.6490 -73.8340 105° East 114 131  Level FlightAware
23:10 40.6440 -73.8190 114° Southeast 111 128  Level FlightAware